sensor_id;sensor_type;location;lat;lon;timestamp;temperature;humidity
47600;DHT22;33323;52.124;6.018;2023-08-31T00:00:50;12.10;99.90
47600;DHT22;33323;52.124;6.018;2023-08-31T00:03:20;12.10;99.90
47600;DHT22;33323;52.124;6.018;2023-08-31T00:05:47;12.10;99.90
47600;DHT22;33323;52.124;6.018;2023-08-31T00:08:15;12.00;99.90
47600;DHT22;33323;52.124;6.018;2023-08-31T00:10:44;12.00;99.90
47600;DHT22;33323;52.124;6.018;2023-08-31T00:13:11;12.00;99.90
47600;DHT22;33323;52.124;6.018;2023-08-31T00:15:39;12.00;99.90
47600;DHT22;33323;52.124;6.018;2023-08-31T00:18:08;12.00;99.90
47600;DHT22;33323;52.124;6.018;2023-08-31T00:20:36;12.00;99.90
47600;DHT22;33323;52.124;6.018;2023-08-31T00:23:03;12.00;99.90
47600;DHT22;33323;52.124;6.018;2023-08-31T00:25:30;12.00;99.90
47600;DHT22;33323;52.124;6.018;2023-08-31T00:27:58;12.10;99.90
47600;DHT22;33323;52.124;6.018;2023-08-31T00:30:31;12.00;99.90
47600;DHT22;33323;52.124;6.018;2023-08-31T00:32:59;12.00;99.90
47600;DHT22;33323;52.124;6.018;2023-08-31T00:35:28;12.00;99.90
47600;DHT22;33323;52.124;6.018;2023-08-31T00:37:56;12.10;99.90
47600;DHT22;33323;52.124;6.018;2023-08-31T00:40:28;12.10;99.90
47600;DHT22;33323;52.124;6.018;2023-08-31T00:42:57;12.20;99.90
47600;DHT22;33323;52.124;6.018;2023-08-31T00:45:25;12.20;99.90
47600;DHT22;33323;52.124;6.018;2023-08-31T00:47:52;12.00;99.90
47600;DHT22;33323;52.124;6.018;2023-08-31T00:50:19;12.00;99.90
47600;DHT22;33323;52.124;6.018;2023-08-31T00:52:46;12.00;99.90
47600;DHT22;33323;52.124;6.018;2023-08-31T00:55:14;12.10;99.90
47600;DHT22;33323;52.124;6.018;2023-08-31T00:57:44;12.00;99.90
47600;DHT22;33323;52.124;6.018;2023-08-31T01:00:14;12.10;99.90
47600;DHT22;33323;52.124;6.018;2023-08-31T01:05:46;12.00;99.90
47600;DHT22;33323;52.124;6.018;2023-08-31T01:11:50;12.10;99.90
47600;DHT22;33323;52.124;6.018;2023-08-31T01:14:23;12.10;99.90
47600;DHT22;33323;52.124;6.018;2023-08-31T01:16:53;12.10;99.90
47600;DHT22;33323;52.124;6.018;2023-08-31T01:19:50;12.10;99.90
47600;DHT22;33323;52.124;6.018;2023-08-31T01:24:59;12.20;99.90
47600;DHT22;33323;52.124;6.018;2023-08-31T01:27:31;12.10;99.90
47600;DHT22;33323;52.124;6.018;2023-08-31T01:29:59;12.00;99.90
47600;DHT22;33323;52.124;6.018;2023-08-31T01:32:26;12.00;99.90
47600;DHT22;33323;52.124;6.018;2023-08-31T01:34:53;12.10;99.90
47600;DHT22;33323;52.124;6.018;2023-08-31T01:37:29;12.10;99.90
47600;DHT22;33323;52.124;6.018;2023-08-31T01:40:08;12.10;99.90
47600;DHT22;33323;52.124;6.018;2023-08-31T01:42:39;12.10;99.90
47600;DHT22;33323;52.124;6.018;2023-08-31T01:45:08;12.10;99.90
47600;DHT22;33323;52.124;6.018;2023-08-31T01:47:38;12.20;99.90
47600;DHT22;33323;52.124;6.018;2023-08-31T01:50:05;12.30;99.90
47600;DHT22;33323;52.124;6.018;2023-08-31T01:52:32;12.30;99.90
47600;DHT22;33323;52.124;6.018;2023-08-31T01:55:00;12.30;99.90
47600;DHT22;33323;52.124;6.018;2023-08-31T01:57:27;12.30;99.90
47600;DHT22;33323;52.124;6.018;2023-08-31T02:00:05;12.30;99.90
47600;DHT22;33323;52.124;6.018;2023-08-31T02:02:40;12.30;99.90
47600;DHT22;33323;52.124;6.018;2023-08-31T02:05:08;12.40;99.90
47600;DHT22;33323;52.124;6.018;2023-08-31T02:07:35;12.30;99.90
47600;DHT22;33323;52.124;6.018;2023-08-31T02:10:03;12.30;99.90
47600;DHT22;33323;52.124;6.018;2023-08-31T02:12:34;12.40;99.90
47600;DHT22;33323;52.124;6.018;2023-08-31T02:15:06;12.50;99.90
47600;DHT22;33323;52.124;6.018;2023-08-31T02:17:36;12.40;99.90
47600;DHT22;33323;52.124;6.018;2023-08-31T02:20:04;12.40;99.90
47600;DHT22;33323;52.124;6.018;2023-08-31T02:22:36;12.30;99.90
47600;DHT22;33323;52.124;6.018;2023-08-31T02:25:05;12.30;99.90
47600;DHT22;33323;52.124;6.018;2023-08-31T02:27:32;12.30;99.90
47600;DHT22;33323;52.124;6.018;2023-08-31T02:29:59;12.30;99.90
47600;DHT22;33323;52.124;6.018;2023-08-31T02:32:27;12.20;99.90
47600;DHT22;33323;52.124;6.018;2023-08-31T02:34:54;12.20;99.90
47600;DHT22;33323;52.124;6.018;2023-08-31T02:37:21;12.20;99.90
47600;DHT22;33323;52.124;6.018;2023-08-31T02:39:49;12.10;99.90
47600;DHT22;33323;52.124;6.018;2023-08-31T02:42:16;12.10;99.90
47600;DHT22;33323;52.124;6.018;2023-08-31T02:44:45;12.10;99.90
47600;DHT22;33323;52.124;6.018;2023-08-31T02:47:12;12.10;99.90
47600;DHT22;33323;52.124;6.018;2023-08-31T02:49:39;12.10;99.90
47600;DHT22;33323;52.124;6.018;2023-08-31T02:52:06;12.10;99.90
47600;DHT22;33323;52.124;6.018;2023-08-31T02:54:33;12.10;99.90
47600;DHT22;33323;52.124;6.018;2023-08-31T02:57:00;12.20;99.90
47600;DHT22;33323;52.124;6.018;2023-08-31T02:59:29;12.20;99.90
47600;DHT22;33323;52.124;6.018;2023-08-31T03:01:56;12.20;99.90
47600;DHT22;33323;52.124;6.018;2023-08-31T03:04:24;12.30;99.90
47600;DHT22;33323;52.124;6.018;2023-08-31T03:06:51;12.30;99.90
47600;DHT22;33323;52.124;6.018;2023-08-31T03:09:18;12.20;99.90
47600;DHT22;33323;52.124;6.018;2023-08-31T03:11:46;12.20;99.90
47600;DHT22;33323;52.124;6.018;2023-08-31T03:14:13;12.20;99.90
47600;DHT22;33323;52.124;6.018;2023-08-31T03:16:40;12.20;99.90
47600;DHT22;33323;52.124;6.018;2023-08-31T03:19:08;12.20;99.90
47600;DHT22;33323;52.124;6.018;2023-08-31T03:21:35;12.10;99.90
47600;DHT22;33323;52.124;6.018;2023-08-31T03:24:02;12.10;99.90
47600;DHT22;33323;52.124;6.018;2023-08-31T03:26:29;12.10;99.90
47600;DHT22;33323;52.124;6.018;2023-08-31T03:28:56;12.10;99.90
47600;DHT22;33323;52.124;6.018;2023-08-31T03:31:24;12.10;99.90
47600;DHT22;33323;52.124;6.018;2023-08-31T03:33:51;12.10;99.90
47600;DHT22;33323;52.124;6.018;2023-08-31T03:36:19;12.20;99.90
47600;DHT22;33323;52.124;6.018;2023-08-31T03:38:46;12.20;99.90
47600;DHT22;33323;52.124;6.018;2023-08-31T03:41:13;12.20;99.90
47600;DHT22;33323;52.124;6.018;2023-08-31T03:43:40;12.20;99.90
47600;DHT22;33323;52.124;6.018;2023-08-31T03:46:07;12.10;99.90
47600;DHT22;33323;52.124;6.018;2023-08-31T03:48:34;12.10;99.90
47600;DHT22;33323;52.124;6.018;2023-08-31T03:51:01;12.00;99.90
47600;DHT22;33323;52.124;6.018;2023-08-31T03:53:28;12.00;99.90
47600;DHT22;33323;52.124;6.018;2023-08-31T03:55:57;12.00;99.90
47600;DHT22;33323;52.124;6.018;2023-08-31T03:58:24;12.00;99.90
47600;DHT22;33323;52.124;6.018;2023-08-31T04:00:53;12.00;99.90
47600;DHT22;33323;52.124;6.018;2023-08-31T04:03:21;12.00;99.90
47600;DHT22;33323;52.124;6.018;2023-08-31T04:05:48;11.90;99.90
47600;DHT22;33323;52.124;6.018;2023-08-31T04:08:20;11.90;99.90
47600;DHT22;33323;52.124;6.018;2023-08-31T04:10:47;11.90;99.90
47600;DHT22;33323;52.124;6.018;2023-08-31T04:13:14;12.00;99.90
47600;DHT22;33323;52.124;6.018;2023-08-31T04:15:41;12.10;99.90
47600;DHT22;33323;52.124;6.018;2023-08-31T04:18:08;12.10;99.90
47600;DHT22;33323;52.124;6.018;2023-08-31T04:20:36;12.20;99.90
47600;DHT22;33323;52.124;6.018;2023-08-31T04:23:03;12.20;99.90
47600;DHT22;33323;52.124;6.018;2023-08-31T04:25:31;12.20;99.90
47600;DHT22;33323;52.124;6.018;2023-08-31T04:28:00;12.20;99.90
47600;DHT22;33323;52.124;6.018;2023-08-31T04:30:28;12.30;99.90
47600;DHT22;33323;52.124;6.018;2023-08-31T04:32:55;12.40;99.90
47600;DHT22;33323;52.124;6.018;2023-08-31T04:35:23;12.30;99.90
47600;DHT22;33323;52.124;6.018;2023-08-31T04:37:51;12.30;99.90
47600;DHT22;33323;52.124;6.018;2023-08-31T04:40:18;12.30;99.90
47600;DHT22;33323;52.124;6.018;2023-08-31T04:42:45;12.30;99.90
47600;DHT22;33323;52.124;6.018;2023-08-31T04:45:13;12.30;99.90
47600;DHT22;33323;52.124;6.018;2023-08-31T04:47:40;12.30;99.90
47600;DHT22;33323;52.124;6.018;2023-08-31T04:50:08;12.30;99.90
47600;DHT22;33323;52.124;6.018;2023-08-31T04:52:35;12.30;99.90
47600;DHT22;33323;52.124;6.018;2023-08-31T04:55:05;12.30;99.90
47600;DHT22;33323;52.124;6.018;2023-08-31T04:57:37;12.30;99.90
47600;DHT22;33323;52.124;6.018;2023-08-31T05:00:06;12.30;99.90
47600;DHT22;33323;52.124;6.018;2023-08-31T05:02:37;12.30;99.90
47600;DHT22;33323;52.124;6.018;2023-08-31T05:05:04;12.40;99.90
47600;DHT22;33323;52.124;6.018;2023-08-31T05:07:35;12.40;99.90
47600;DHT22;33323;52.124;6.018;2023-08-31T05:10:02;12.40;99.90
47600;DHT22;33323;52.124;6.018;2023-08-31T05:12:30;12.40;99.90
47600;DHT22;33323;52.124;6.018;2023-08-31T05:14:59;12.50;99.90
47600;DHT22;33323;52.124;6.018;2023-08-31T05:17:26;12.60;99.90
47600;DHT22;33323;52.124;6.018;2023-08-31T05:19:54;12.50;99.90
47600;DHT22;33323;52.124;6.018;2023-08-31T05:22:22;12.60;99.90
47600;DHT22;33323;52.124;6.018;2023-08-31T05:24:49;12.60;99.90
47600;DHT22;33323;52.124;6.018;2023-08-31T05:27:16;12.60;99.90
47600;DHT22;33323;52.124;6.018;2023-08-31T05:29:43;12.70;99.90
47600;DHT22;33323;52.124;6.018;2023-08-31T05:32:10;12.60;99.90
47600;DHT22;33323;52.124;6.018;2023-08-31T05:34:38;12.60;99.90
47600;DHT22;33323;52.124;6.018;2023-08-31T05:37:06;12.70;99.90
47600;DHT22;33323;52.124;6.018;2023-08-31T05:39:33;12.70;99.90
47600;DHT22;33323;52.124;6.018;2023-08-31T05:42:01;12.70;99.90
47600;DHT22;33323;52.124;6.018;2023-08-31T05:44:29;12.70;99.90
47600;DHT22;33323;52.124;6.018;2023-08-31T05:46:57;12.70;99.90
47600;DHT22;33323;52.124;6.018;2023-08-31T05:49:24;12.70;99.90
47600;DHT22;33323;52.124;6.018;2023-08-31T05:51:51;12.70;99.90
47600;DHT22;33323;52.124;6.018;2023-08-31T05:54:19;12.80;99.90
47600;DHT22;33323;52.124;6.018;2023-08-31T05:56:46;12.80;99.90
47600;DHT22;33323;52.124;6.018;2023-08-31T05:59:14;12.80;99.90
47600;DHT22;33323;52.124;6.018;2023-08-31T06:01:43;12.80;99.90
47600;DHT22;33323;52.124;6.018;2023-08-31T06:04:10;12.80;99.90
47600;DHT22;33323;52.124;6.018;2023-08-31T06:06:38;12.80;99.90
47600;DHT22;33323;52.124;6.018;2023-08-31T06:09:05;12.80;99.90
47600;DHT22;33323;52.124;6.018;2023-08-31T06:11:33;12.90;99.90
47600;DHT22;33323;52.124;6.018;2023-08-31T06:14:02;12.90;99.90
47600;DHT22;33323;52.124;6.018;2023-08-31T06:16:30;13.00;99.90
47600;DHT22;33323;52.124;6.018;2023-08-31T06:18:58;13.10;99.90
47600;DHT22;33323;52.124;6.018;2023-08-31T06:21:25;13.20;99.90
47600;DHT22;33323;52.124;6.018;2023-08-31T06:23:52;13.30;99.90
47600;DHT22;33323;52.124;6.018;2023-08-31T06:26:19;13.40;99.90
47600;DHT22;33323;52.124;6.018;2023-08-31T06:28:46;13.40;99.90
47600;DHT22;33323;52.124;6.018;2023-08-31T06:31:14;13.50;99.90
47600;DHT22;33323;52.124;6.018;2023-08-31T06:33:41;13.50;99.90
47600;DHT22;33323;52.124;6.018;2023-08-31T06:36:08;13.60;99.90
47600;DHT22;33323;52.124;6.018;2023-08-31T06:38:36;13.50;99.90
47600;DHT22;33323;52.124;6.018;2023-08-31T06:41:03;13.50;99.90
47600;DHT22;33323;52.124;6.018;2023-08-31T06:43:31;13.50;99.90
47600;DHT22;33323;52.124;6.018;2023-08-31T06:45:58;13.50;99.90
47600;DHT22;33323;52.124;6.018;2023-08-31T06:48:43;13.50;99.90
47600;DHT22;33323;52.124;6.018;2023-08-31T06:51:11;13.70;99.90
47600;DHT22;33323;52.124;6.018;2023-08-31T06:53:38;13.70;99.90
47600;DHT22;33323;52.124;6.018;2023-08-31T06:56:05;13.80;99.90
47600;DHT22;33323;52.124;6.018;2023-08-31T06:58:32;13.80;99.90
47600;DHT22;33323;52.124;6.018;2023-08-31T07:01:00;13.90;99.90
47600;DHT22;33323;52.124;6.018;2023-08-31T07:03:28;14.00;99.90
47600;DHT22;33323;52.124;6.018;2023-08-31T07:05:55;14.00;99.90
47600;DHT22;33323;52.124;6.018;2023-08-31T07:08:23;14.00;99.90
47600;DHT22;33323;52.124;6.018;2023-08-31T07:10:50;14.00;99.90
47600;DHT22;33323;52.124;6.018;2023-08-31T07:13:18;14.00;99.90
47600;DHT22;33323;52.124;6.018;2023-08-31T07:15:45;13.90;99.90
47600;DHT22;33323;52.124;6.018;2023-08-31T07:18:12;13.80;99.90
47600;DHT22;33323;52.124;6.018;2023-08-31T07:20:40;13.70;99.90
47600;DHT22;33323;52.124;6.018;2023-08-31T07:23:07;13.80;99.90
47600;DHT22;33323;52.124;6.018;2023-08-31T07:25:34;13.90;99.90
47600;DHT22;33323;52.124;6.018;2023-08-31T07:28:02;14.00;99.90
47600;DHT22;33323;52.124;6.018;2023-08-31T07:30:30;14.20;99.90
47600;DHT22;33323;52.124;6.018;2023-08-31T07:32:57;14.30;99.90
47600;DHT22;33323;52.124;6.018;2023-08-31T07:35:26;14.40;99.90
47600;DHT22;33323;52.124;6.018;2023-08-31T07:37:54;14.50;99.90
47600;DHT22;33323;52.124;6.018;2023-08-31T07:40:21;14.60;99.90
47600;DHT22;33323;52.124;6.018;2023-08-31T07:42:49;14.70;99.90
47600;DHT22;33323;52.124;6.018;2023-08-31T07:45:18;14.80;99.90
47600;DHT22;33323;52.124;6.018;2023-08-31T07:47:45;14.90;99.90
47600;DHT22;33323;52.124;6.018;2023-08-31T07:50:13;15.10;99.90
47600;DHT22;33323;52.124;6.018;2023-08-31T07:52:41;15.10;99.90
47600;DHT22;33323;52.124;6.018;2023-08-31T07:55:08;15.30;99.90
47600;DHT22;33323;52.124;6.018;2023-08-31T07:57:36;15.40;99.90
47600;DHT22;33323;52.124;6.018;2023-08-31T08:00:04;15.60;99.90
47600;DHT22;33323;52.124;6.018;2023-08-31T08:02:38;15.80;99.90
47600;DHT22;33323;52.124;6.018;2023-08-31T08:05:06;15.70;99.90
47600;DHT22;33323;52.124;6.018;2023-08-31T08:07:34;15.80;99.90
47600;DHT22;33323;52.124;6.018;2023-08-31T08:10:02;16.10;99.90
47600;DHT22;33323;52.124;6.018;2023-08-31T08:12:40;16.30;99.90
47600;DHT22;33323;52.124;6.018;2023-08-31T08:15:12;16.20;99.90
47600;DHT22;33323;52.124;6.018;2023-08-31T08:17:40;15.70;99.90
47600;DHT22;33323;52.124;6.018;2023-08-31T08:20:08;15.40;99.90
47600;DHT22;33323;52.124;6.018;2023-08-31T08:22:36;15.20;99.90
47600;DHT22;33323;52.124;6.018;2023-08-31T08:25:06;15.00;99.90
47600;DHT22;33323;52.124;6.018;2023-08-31T08:27:34;14.80;99.90
47600;DHT22;33323;52.124;6.018;2023-08-31T08:30:03;14.90;99.90
47600;DHT22;33323;52.124;6.018;2023-08-31T08:32:33;15.30;99.90
47600;DHT22;33323;52.124;6.018;2023-08-31T08:35:01;15.80;99.90
47600;DHT22;33323;52.124;6.018;2023-08-31T08:37:30;16.30;99.90
47600;DHT22;33323;52.124;6.018;2023-08-31T08:40:01;16.80;99.90
47600;DHT22;33323;52.124;6.018;2023-08-31T08:42:31;17.50;99.90
47600;DHT22;33323;52.124;6.018;2023-08-31T08:45:01;18.00;99.90
47600;DHT22;33323;52.124;6.018;2023-08-31T08:47:30;17.80;99.90
47600;DHT22;33323;52.124;6.018;2023-08-31T08:49:58;17.50;99.90
47600;DHT22;33323;52.124;6.018;2023-08-31T08:52:26;17.40;99.90
47600;DHT22;33323;52.124;6.018;2023-08-31T08:54:54;17.30;99.90
47600;DHT22;33323;52.124;6.018;2023-08-31T08:57:23;17.00;99.90
47600;DHT22;33323;52.124;6.018;2023-08-31T08:59:50;16.80;99.90
47600;DHT22;33323;52.124;6.018;2023-08-31T09:02:17;16.60;99.90
47600;DHT22;33323;52.124;6.018;2023-08-31T09:04:45;16.70;99.90
47600;DHT22;33323;52.124;6.018;2023-08-31T09:07:12;17.00;99.90
47600;DHT22;33323;52.124;6.018;2023-08-31T09:09:52;17.10;99.90
47600;DHT22;33323;52.124;6.018;2023-08-31T09:12:22;17.00;99.90
47600;DHT22;33323;52.124;6.018;2023-08-31T09:15:01;16.90;99.90
47600;DHT22;33323;52.124;6.018;2023-08-31T09:17:42;16.80;99.90
47600;DHT22;33323;52.124;6.018;2023-08-31T09:20:11;16.70;99.90
47600;DHT22;33323;52.124;6.018;2023-08-31T09:22:43;16.70;99.90
47600;DHT22;33323;52.124;6.018;2023-08-31T09:25:13;16.70;99.90
47600;DHT22;33323;52.124;6.018;2023-08-31T09:27:43;16.50;99.90
47600;DHT22;33323;52.124;6.018;2023-08-31T09:30:11;16.80;99.90
47600;DHT22;33323;52.124;6.018;2023-08-31T09:32:39;17.40;99.90
47600;DHT22;33323;52.124;6.018;2023-08-31T09:35:09;18.00;99.90
47600;DHT22;33323;52.124;6.018;2023-08-31T09:37:55;18.20;99.90
47600;DHT22;33323;52.124;6.018;2023-08-31T09:40:26;18.50;99.90
47600;DHT22;33323;52.124;6.018;2023-08-31T09:42:53;19.00;99.90
47600;DHT22;33323;52.124;6.018;2023-08-31T09:45:30;19.20;99.90
47600;DHT22;33323;52.124;6.018;2023-08-31T09:48:04;19.40;99.90
47600;DHT22;33323;52.124;6.018;2023-08-31T09:50:33;19.40;99.90
47600;DHT22;33323;52.124;6.018;2023-08-31T09:53:03;19.60;99.90
47600;DHT22;33323;52.124;6.018;2023-08-31T09:55:32;19.80;99.90
47600;DHT22;33323;52.124;6.018;2023-08-31T09:58:01;19.90;99.90
47600;DHT22;33323;52.124;6.018;2023-08-31T10:00:40;20.00;99.90
47600;DHT22;33323;52.124;6.018;2023-08-31T10:03:10;20.20;99.90
47600;DHT22;33323;52.124;6.018;2023-08-31T10:05:49;20.30;99.90
47600;DHT22;33323;52.124;6.018;2023-08-31T10:08:18;19.80;99.90
47600;DHT22;33323;52.124;6.018;2023-08-31T10:10:46;20.00;99.90
47600;DHT22;33323;52.124;6.018;2023-08-31T10:13:14;19.90;99.90
47600;DHT22;33323;52.124;6.018;2023-08-31T10:15:45;19.80;99.90
47600;DHT22;33323;52.124;6.018;2023-08-31T10:18:13;19.70;99.90
47600;DHT22;33323;52.124;6.018;2023-08-31T10:20:44;19.40;99.90
47600;DHT22;33323;52.124;6.018;2023-08-31T10:23:13;19.10;99.90
47600;DHT22;33323;52.124;6.018;2023-08-31T10:28:25;18.90;99.90
47600;DHT22;33323;52.124;6.018;2023-08-31T10:31:09;18.90;99.90
47600;DHT22;33323;52.124;6.018;2023-08-31T10:33:45;18.90;99.90
47600;DHT22;33323;52.124;6.018;2023-08-31T10:36:20;18.70;99.90
47600;DHT22;33323;52.124;6.018;2023-08-31T10:39:00;18.40;99.90
47600;DHT22;33323;52.124;6.018;2023-08-31T10:41:35;18.60;99.90
47600;DHT22;33323;52.124;6.018;2023-08-31T10:46:46;19.40;99.90
47600;DHT22;33323;52.124;6.018;2023-08-31T10:49:19;19.80;99.90
47600;DHT22;33323;52.124;6.018;2023-08-31T10:51:55;20.20;99.90
47600;DHT22;33323;52.124;6.018;2023-08-31T10:54:25;20.40;99.90
47600;DHT22;33323;52.124;6.018;2023-08-31T10:59:48;20.90;99.90
47600;DHT22;33323;52.124;6.018;2023-08-31T11:02:34;20.60;99.90
47600;DHT22;33323;52.124;6.018;2023-08-31T11:05:13;19.80;99.90
47600;DHT22;33323;52.124;6.018;2023-08-31T11:07:48;19.40;99.90
47600;DHT22;33323;52.124;6.018;2023-08-31T11:10:22;19.70;99.90
47600;DHT22;33323;52.124;6.018;2023-08-31T11:12:54;20.50;99.90
47600;DHT22;33323;52.124;6.018;2023-08-31T11:15:27;21.00;99.90
47600;DHT22;33323;52.124;6.018;2023-08-31T11:17:57;21.20;99.90
47600;DHT22;33323;52.124;6.018;2023-08-31T11:20:25;21.40;99.90
47600;DHT22;33323;52.124;6.018;2023-08-31T11:22:55;21.60;99.90
47600;DHT22;33323;52.124;6.018;2023-08-31T11:25:23;21.70;99.90
47600;DHT22;33323;52.124;6.018;2023-08-31T11:28:00;21.40;99.90
47600;DHT22;33323;52.124;6.018;2023-08-31T11:30:33;21.20;99.90
47600;DHT22;33323;52.124;6.018;2023-08-31T11:33:08;21.10;99.90
47600;DHT22;33323;52.124;6.018;2023-08-31T11:35:40;21.20;99.90
47600;DHT22;33323;52.124;6.018;2023-08-31T11:38:09;21.50;99.90
47600;DHT22;33323;52.124;6.018;2023-08-31T11:40:37;21.90;99.90
47600;DHT22;33323;52.124;6.018;2023-08-31T11:43:05;22.00;99.90
47600;DHT22;33323;52.124;6.018;2023-08-31T11:45:34;22.00;99.90
47600;DHT22;33323;52.124;6.018;2023-08-31T11:48:04;22.30;99.90
47600;DHT22;33323;52.124;6.018;2023-08-31T11:50:32;22.80;99.90
47600;DHT22;33323;52.124;6.018;2023-08-31T11:52:59;23.00;99.90
47600;DHT22;33323;52.124;6.018;2023-08-31T11:55:26;23.00;99.90
47600;DHT22;33323;52.124;6.018;2023-08-31T11:57:55;22.80;99.90
47600;DHT22;33323;52.124;6.018;2023-08-31T12:00:23;22.50;99.90
47600;DHT22;33323;52.124;6.018;2023-08-31T12:02:58;21.90;99.90
47600;DHT22;33323;52.124;6.018;2023-08-31T12:05:27;21.80;99.90
47600;DHT22;33323;52.124;6.018;2023-08-31T12:07:55;21.60;99.90
47600;DHT22;33323;52.124;6.018;2023-08-31T12:10:26;20.80;99.90
47600;DHT22;33323;52.124;6.018;2023-08-31T12:12:54;20.50;99.90
47600;DHT22;33323;52.124;6.018;2023-08-31T12:15:34;20.20;99.90
47600;DHT22;33323;52.124;6.018;2023-08-31T12:18:12;20.20;99.90
47600;DHT22;33323;52.124;6.018;2023-08-31T12:20:48;20.00;99.90
47600;DHT22;33323;52.124;6.018;2023-08-31T12:23:20;20.00;99.90
47600;DHT22;33323;52.124;6.018;2023-08-31T12:25:49;20.10;99.90
47600;DHT22;33323;52.124;6.018;2023-08-31T12:28:18;20.30;99.90
47600;DHT22;33323;52.124;6.018;2023-08-31T12:30:51;20.50;99.90
47600;DHT22;33323;52.124;6.018;2023-08-31T12:33:20;20.50;99.90
47600;DHT22;33323;52.124;6.018;2023-08-31T12:35:48;20.90;99.90
47600;DHT22;33323;52.124;6.018;2023-08-31T12:38:15;21.20;99.90
47600;DHT22;33323;52.124;6.018;2023-08-31T12:40:43;21.40;99.90
47600;DHT22;33323;52.124;6.018;2023-08-31T12:43:10;21.40;99.90
47600;DHT22;33323;52.124;6.018;2023-08-31T12:45:37;21.70;99.90
47600;DHT22;33323;52.124;6.018;2023-08-31T12:48:05;21.70;99.90
47600;DHT22;33323;52.124;6.018;2023-08-31T12:50:32;21.50;99.90
47600;DHT22;33323;52.124;6.018;2023-08-31T12:52:59;21.70;99.90
47600;DHT22;33323;52.124;6.018;2023-08-31T12:55:27;21.90;99.90
47600;DHT22;33323;52.124;6.018;2023-08-31T12:57:54;21.90;99.90
47600;DHT22;33323;52.124;6.018;2023-08-31T13:00:21;21.90;99.90
47600;DHT22;33323;52.124;6.018;2023-08-31T13:02:50;22.10;99.90
47600;DHT22;33323;52.124;6.018;2023-08-31T13:05:18;22.20;99.90
47600;DHT22;33323;52.124;6.018;2023-08-31T13:07:46;22.10;99.90
47600;DHT22;33323;52.124;6.018;2023-08-31T13:10:13;21.90;99.90
47600;DHT22;33323;52.124;6.018;2023-08-31T13:12:40;21.90;99.90
47600;DHT22;33323;52.124;6.018;2023-08-31T13:15:08;22.00;99.90
47600;DHT22;33323;52.124;6.018;2023-08-31T13:17:35;22.00;99.90
47600;DHT22;33323;52.124;6.018;2023-08-31T13:20:03;21.90;99.90
47600;DHT22;33323;52.124;6.018;2023-08-31T13:22:30;21.80;99.90
47600;DHT22;33323;52.124;6.018;2023-08-31T13:24:58;22.00;99.90
47600;DHT22;33323;52.124;6.018;2023-08-31T13:27:25;22.10;99.90
47600;DHT22;33323;52.124;6.018;2023-08-31T13:29:52;22.30;99.90
47600;DHT22;33323;52.124;6.018;2023-08-31T13:32:19;22.40;99.90
47600;DHT22;33323;52.124;6.018;2023-08-31T13:34:46;22.40;99.90
47600;DHT22;33323;52.124;6.018;2023-08-31T13:37:13;22.00;99.90
47600;DHT22;33323;52.124;6.018;2023-08-31T13:39:40;22.00;99.90
47600;DHT22;33323;52.124;6.018;2023-08-31T13:42:07;21.60;99.90
47600;DHT22;33323;52.124;6.018;2023-08-31T13:44:34;21.80;99.90
47600;DHT22;33323;52.124;6.018;2023-08-31T13:47:02;21.60;99.90
47600;DHT22;33323;52.124;6.018;2023-08-31T13:49:30;21.50;99.90
47600;DHT22;33323;52.124;6.018;2023-08-31T13:51:59;21.50;99.90
47600;DHT22;33323;52.124;6.018;2023-08-31T13:54:26;21.60;99.90
47600;DHT22;33323;52.124;6.018;2023-08-31T13:56:53;21.30;99.90
47600;DHT22;33323;52.124;6.018;2023-08-31T13:59:21;21.30;99.90
47600;DHT22;33323;52.124;6.018;2023-08-31T14:01:48;21.60;99.90
47600;DHT22;33323;52.124;6.018;2023-08-31T14:04:15;21.70;99.90
47600;DHT22;33323;52.124;6.018;2023-08-31T14:06:42;21.90;99.90
47600;DHT22;33323;52.124;6.018;2023-08-31T14:09:09;21.80;99.90
47600;DHT22;33323;52.124;6.018;2023-08-31T14:11:36;21.60;99.90
47600;DHT22;33323;52.124;6.018;2023-08-31T14:14:04;21.50;99.90
47600;DHT22;33323;52.124;6.018;2023-08-31T14:16:38;21.80;99.90
47600;DHT22;33323;52.124;6.018;2023-08-31T14:19:05;21.90;99.90
47600;DHT22;33323;52.124;6.018;2023-08-31T14:21:32;21.90;99.90
47600;DHT22;33323;52.124;6.018;2023-08-31T14:23:59;22.10;99.90
47600;DHT22;33323;52.124;6.018;2023-08-31T14:26:27;22.20;99.90
47600;DHT22;33323;52.124;6.018;2023-08-31T14:28:54;22.10;99.90
47600;DHT22;33323;52.124;6.018;2023-08-31T14:31:21;22.10;99.90
47600;DHT22;33323;52.124;6.018;2023-08-31T14:33:48;22.10;99.90
47600;DHT22;33323;52.124;6.018;2023-08-31T14:36:16;21.90;99.90
47600;DHT22;33323;52.124;6.018;2023-08-31T14:38:43;21.90;99.90
47600;DHT22;33323;52.124;6.018;2023-08-31T14:41:12;21.90;99.90
47600;DHT22;33323;52.124;6.018;2023-08-31T14:43:39;21.80;99.90
47600;DHT22;33323;52.124;6.018;2023-08-31T14:46:06;21.70;99.90
47600;DHT22;33323;52.124;6.018;2023-08-31T14:48:34;21.50;99.90
47600;DHT22;33323;52.124;6.018;2023-08-31T14:51:01;21.50;99.90
47600;DHT22;33323;52.124;6.018;2023-08-31T14:53:28;21.60;99.90
47600;DHT22;33323;52.124;6.018;2023-08-31T14:55:55;21.50;99.90
47600;DHT22;33323;52.124;6.018;2023-08-31T14:58:22;21.50;99.90
47600;DHT22;33323;52.124;6.018;2023-08-31T15:00:49;21.50;99.90
47600;DHT22;33323;52.124;6.018;2023-08-31T15:03:16;21.50;99.90
47600;DHT22;33323;52.124;6.018;2023-08-31T15:05:43;21.60;99.90
47600;DHT22;33323;52.124;6.018;2023-08-31T15:08:10;21.60;99.90
47600;DHT22;33323;52.124;6.018;2023-08-31T15:10:39;21.50;99.90
47600;DHT22;33323;52.124;6.018;2023-08-31T15:13:07;21.50;99.90
47600;DHT22;33323;52.124;6.018;2023-08-31T15:15:34;21.70;99.90
47600;DHT22;33323;52.124;6.018;2023-08-31T15:18:01;21.70;99.90
47600;DHT22;33323;52.124;6.018;2023-08-31T15:20:29;21.70;99.90
47600;DHT22;33323;52.124;6.018;2023-08-31T15:22:56;21.50;99.90
47600;DHT22;33323;52.124;6.018;2023-08-31T15:25:23;21.50;99.90
47600;DHT22;33323;52.124;6.018;2023-08-31T15:27:50;21.50;99.90
47600;DHT22;33323;52.124;6.018;2023-08-31T15:30:17;21.40;99.90
47600;DHT22;33323;52.124;6.018;2023-08-31T15:32:44;21.50;99.90
47600;DHT22;33323;52.124;6.018;2023-08-31T15:35:11;21.50;99.90
47600;DHT22;33323;52.124;6.018;2023-08-31T15:37:38;21.50;99.90
47600;DHT22;33323;52.124;6.018;2023-08-31T15:40:06;21.30;99.90
47600;DHT22;33323;52.124;6.018;2023-08-31T15:42:34;21.20;99.90
47600;DHT22;33323;52.124;6.018;2023-08-31T15:45:01;21.30;99.90
47600;DHT22;33323;52.124;6.018;2023-08-31T15:47:29;21.30;99.90
47600;DHT22;33323;52.124;6.018;2023-08-31T15:49:56;21.20;99.90
47600;DHT22;33323;52.124;6.018;2023-08-31T15:52:23;20.90;99.90
47600;DHT22;33323;52.124;6.018;2023-08-31T15:54:50;20.70;99.90
47600;DHT22;33323;52.124;6.018;2023-08-31T15:57:18;20.60;99.90